Time;durP1;ratioP1;P1;durP2;ratioP2;P2;SDS_P1;SDS_P2;PMS_P1;PMS_P2;Temp;Humidity;BMP_temperature;BMP_pressure;BME280_temperature;BME280_humidity;BME280_pressure;Samples;Min_cycle;Max_cycle;Signal;HPM_P1;HPM_P2
2023/07/24 00:02:08;;;;;;;10.05;5.00;;;19.40;95.90;;;;;;10308069;28;20015;-69
2023/07/24 00:07:09;;;;;;;10.65;5.22;;;19.40;95.90;;;;;;10317009;28;20113;-69
2023/07/24 00:12:10;;;;;;;12.05;6.03;;;19.40;95.90;;;;;;10312829;28;20018;-69
2023/07/24 00:17:10;;;;;;;9.77;5.43;;;19.40;95.90;;;;;;10317838;28;20478;-69
2023/07/24 00:22:11;;;;;;;11.15;6.25;;;19.40;95.90;;;;;;10321818;28;20040;-69
2023/07/24 00:27:11;;;;;;;12.80;6.63;;;19.40;96.00;;;;;;10324330;28;20026;-69
2023/07/24 00:32:12;;;;;;;7.47;4.38;;;19.30;96.00;;;;;;10317494;28;20068;-69
2023/07/24 00:37:13;;;;;;;8.50;4.80;;;19.40;96.00;;;;;;10321558;28;20121;-69
2023/07/24 00:42:13;;;;;;;11.77;6.78;;;19.30;96.00;;;;;;10324331;28;20026;-69
2023/07/24 00:47:14;;;;;;;8.50;5.35;;;19.30;96.10;;;;;;10319599;28;20022;-69
2023/07/24 00:52:15;;;;;;;9.98;5.78;;;19.30;96.10;;;;;;10320463;28;20010;-71
2023/07/24 00:57:16;;;;;;;9.60;6.45;;;19.30;96.10;;;;;;10315639;28;20037;-69
2023/07/24 01:02:17;;;;;;;10.73;5.90;;;19.30;96.10;;;;;;10313484;28;20025;-69
2023/07/24 01:07:18;;;;;;;12.20;7.47;;;19.20;96.10;;;;;;10353544;28;20114;-69
2023/07/24 01:12:38;;;;;;;11.20;7.35;;;19.20;96.40;;;;;;10326515;28;20584;-69
2023/07/24 01:17:50;;;;;;;11.20;6.03;;;19.20;96.20;;;;;;10322306;28;20499;-69
2023/07/24 01:23:04;;;;;;;9.57;6.10;;;19.20;96.10;;;;;;10320226;28;20062;-69
2023/07/24 01:28:08;;;;;;;9.20;5.65;;;19.20;96.10;;;;;;10322521;28;20401;-69
2023/07/24 01:33:09;;;;;;;12.15;7.18;;;19.20;96.20;;;;;;10323173;28;20104;-69
2023/07/24 01:38:14;;;;;;;9.52;6.18;;;19.20;96.20;;;;;;10323869;28;20014;-69
2023/07/24 01:43:15;;;;;;;10.32;6.75;;;19.20;96.20;;;;;;10326835;28;20019;-69
2023/07/24 01:48:15;;;;;;;9.48;6.05;;;19.20;96.20;;;;;;10326085;28;20029;-69
2023/07/24 01:53:16;;;;;;;10.77;6.82;;;19.20;96.20;;;;;;10320076;28;20112;-69
2023/07/24 01:58:17;;;;;;;11.52;7.43;;;19.10;96.10;;;;;;10324921;28;20049;-69
2023/07/24 02:03:17;;;;;;;11.73;7.22;;;19.10;96.20;;;;;;10318454;28;20026;-69
2023/07/24 02:08:18;;;;;;;12.55;6.80;;;19.10;96.20;;;;;;10323398;28;20034;-69
2023/07/24 02:13:19;;;;;;;11.10;7.05;;;19.10;96.20;;;;;;10321015;28;20362;-68
2023/07/24 02:18:19;;;;;;;11.68;7.53;;;19.10;96.20;;;;;;10318547;28;20042;-69
2023/07/24 02:23:20;;;;;;;11.00;6.80;;;19.10;96.20;;;;;;10318315;28;20390;-69
2023/07/24 02:28:20;;;;;;;10.02;6.47;;;19.10;96.20;;;;;;10317895;28;20022;-69
2023/07/24 02:33:22;;;;;;;10.10;6.10;;;19.10;96.20;;;;;;10320112;28;20509;-69
2023/07/24 02:38:22;;;;;;;9.40;6.20;;;19.10;96.20;;;;;;10317731;28;20088;-69
2023/07/24 02:43:23;;;;;;;10.70;6.55;;;19.10;96.20;;;;;;10316449;28;20026;-70
2023/07/24 02:48:24;;;;;;;9.20;6.30;;;19.10;96.20;;;;;;10323212;28;20018;-69
2023/07/24 02:53:24;;;;;;;8.65;5.70;;;19.10;96.20;;;;;;10321247;28;20506;-69
2023/07/24 02:58:25;;;;;;;11.45;6.88;;;19.10;96.20;;;;;;10312038;28;20290;-69
2023/07/24 03:03:26;;;;;;;9.18;6.13;;;19.00;96.20;;;;;;10317376;28;20430;-69
2023/07/24 03:08:26;;;;;;;8.93;5.50;;;19.00;96.20;;;;;;10313643;28;20053;-69
2023/07/24 03:13:27;;;;;;;9.55;6.40;;;19.00;96.20;;;;;;10318077;28;20018;-69
2023/07/24 03:18:28;;;;;;;9.15;5.40;;;19.00;96.20;;;;;;10315380;28;20080;-69
2023/07/24 03:23:28;;;;;;;8.77;5.72;;;19.00;96.20;;;;;;10312830;28;20014;-69
2023/07/24 03:28:29;;;;;;;9.23;6.18;;;19.00;96.20;;;;;;10317328;28;20046;-69
2023/07/24 03:33:30;;;;;;;9.40;6.05;;;19.00;96.20;;;;;;10321466;28;20019;-69
2023/07/24 03:38:30;;;;;;;9.15;5.45;;;19.00;96.20;;;;;;10318478;28;20100;-69
2023/07/24 03:43:31;;;;;;;8.73;5.95;;;19.00;96.20;;;;;;10319676;28;20038;-69
2023/07/24 03:48:31;;;;;;;8.15;5.43;;;18.90;96.20;;;;;;10315724;28;20200;-69
2023/07/24 03:53:32;;;;;;;8.05;5.07;;;18.90;96.20;;;;;;10318927;28;20022;-69
2023/07/24 03:58:33;;;;;;;9.55;5.72;;;18.90;96.20;;;;;;10322961;28;20252;-69
2023/07/24 04:03:34;;;;;;;9.65;5.55;;;19.00;96.30;;;;;;10321045;28;20014;-69
2023/07/24 04:08:34;;;;;;;7.95;5.43;;;18.90;96.20;;;;;;10320683;28;20387;-69
2023/07/24 04:13:35;;;;;;;7.93;5.25;;;18.90;96.20;;;;;;10323085;28;20041;-69
2023/07/24 04:18:35;;;;;;;7.65;5.30;;;18.60;96.10;;;;;;10315991;28;20023;-69
2023/07/24 04:23:36;;;;;;;9.30;5.43;;;19.00;96.30;;;;;;10314099;28;20529;-69
2023/07/24 04:28:36;;;;;;;9.82;6.18;;;18.90;96.20;;;;;;10324415;28;20022;-69
2023/07/24 04:33:38;;;;;;;7.90;5.65;;;18.90;96.20;;;;;;10322520;28;20018;-69
2023/07/24 04:38:38;;;;;;;8.23;5.63;;;18.90;96.20;;;;;;10320367;28;20023;-70
2023/07/24 04:43:39;;;;;;;8.30;5.88;;;18.90;96.20;;;;;;10320866;28;20027;-70
2023/07/24 04:48:40;;;;;;;8.52;5.47;;;18.90;96.20;;;;;;10320029;28;20023;-70
2023/07/24 04:53:40;;;;;;;9.20;6.60;;;18.90;96.30;;;;;;10316424;28;20039;-69
2023/07/24 04:58:41;;;;;;;8.63;5.68;;;18.90;96.40;;;;;;10332692;28;20034;-68
2023/07/24 05:03:41;;;;;;;7.78;5.95;;;18.90;96.40;;;;;;10340767;28;20030;-69
2023/07/24 05:08:42;;;;;;;9.20;6.38;;;18.90;96.40;;;;;;10330225;28;20557;-68
2023/07/24 05:13:42;;;;;;;8.15;5.65;;;18.80;96.40;;;;;;10323830;28;20022;-69
2023/07/24 05:18:43;;;;;;;8.48;6.03;;;18.90;96.40;;;;;;10328467;28;20034;-69
2023/07/24 05:23:44;;;;;;;8.98;6.22;;;18.90;96.30;;;;;;10329232;28;20503;-68
2023/07/24 05:28:45;;;;;;;10.15;6.30;;;18.90;96.30;;;;;;10326271;28;20030;-69
2023/07/24 05:33:46;;;;;;;9.05;5.50;;;18.90;96.30;;;;;;10334976;28;20494;-69
2023/07/24 05:38:46;;;;;;;8.98;5.97;;;18.90;96.20;;;;;;10332735;28;20030;-69
2023/07/24 05:43:47;;;;;;;8.18;5.20;;;18.90;96.20;;;;;;10330567;28;20030;-69
2023/07/24 05:48:47;;;;;;;8.52;5.40;;;18.90;96.20;;;;;;10323244;28;20030;-68
2023/07/24 05:53:48;;;;;;;7.82;5.28;;;18.90;96.20;;;;;;10326737;28;20025;-69
2023/07/24 05:58:49;;;;;;;7.28;5.13;;;18.90;96.20;;;;;;10329974;28;20498;-69
2023/07/24 06:03:50;;;;;;;7.20;4.82;;;18.90;96.20;;;;;;10307586;28;20048;-69
2023/07/24 06:08:51;;;;;;;6.97;4.80;;;18.90;96.20;;;;;;10324869;28;20104;-69
2023/07/24 06:13:52;;;;;;;7.45;5.10;;;18.90;96.10;;;;;;10332844;28;20030;-69
2023/07/24 06:18:53;;;;;;;6.80;4.63;;;18.70;96.00;;;;;;10316419;28;20404;-69
2023/07/24 06:23:54;;;;;;;6.78;4.70;;;19.00;96.10;;;;;;10328837;28;20040;-69
2023/07/24 06:28:54;;;;;;;6.18;4.57;;;19.00;96.00;;;;;;10315789;28;20521;-69
2023/07/24 06:33:55;;;;;;;8.13;5.03;;;19.00;96.10;;;;;;10325324;28;20023;-69
2023/07/24 06:38:55;;;;;;;7.15;4.50;;;19.00;96.10;;;;;;10330982;28;20029;-69
2023/07/24 06:43:56;;;;;;;6.95;4.35;;;19.10;96.10;;;;;;10316483;28;20034;-69
2023/07/24 06:48:57;;;;;;;6.57;4.30;;;19.10;96.10;;;;;;10315881;28;20031;-69
2023/07/24 06:53:57;;;;;;;7.07;4.60;;;19.10;96.10;;;;;;10321723;28;20018;-68
2023/07/24 06:58:59;;;;;;;7.05;4.25;;;19.10;96.10;;;;;;10320742;28;20113;-69
2023/07/24 07:04:00;;;;;;;6.20;4.32;;;19.10;96.10;;;;;;10310570;28;20039;-69
2023/07/24 07:09:00;;;;;;;7.75;4.25;;;19.10;96.10;;;;;;10320282;28;20030;-69
2023/07/24 07:14:01;;;;;;;8.50;4.13;;;19.10;96.10;;;;;;10320060;28;20278;-69
2023/07/24 07:19:01;;;;;;;6.80;4.32;;;19.10;96.10;;;;;;10311118;28;20041;-69
2023/07/24 07:24:02;;;;;;;6.43;3.88;;;19.20;96.10;;;;;;10316640;28;20455;-68
2023/07/24 07:29:03;;;;;;;5.88;3.78;;;19.20;96.10;;;;;;10318970;28;20121;-69
2023/07/24 07:34:03;;;;;;;5.65;3.83;;;19.20;96.10;;;;;;10315277;28;20030;-69
2023/07/24 07:39:04;;;;;;;6.30;4.07;;;19.20;96.10;;;;;;10326850;28;20081;-69
2023/07/24 07:44:05;;;;;;;5.47;3.58;;;19.20;96.10;;;;;;10331415;28;20116;-69
2023/07/24 07:49:06;;;;;;;8.10;4.43;;;19.30;96.10;;;;;;10323132;28;20030;-69
2023/07/24 07:54:07;;;;;;;5.63;3.83;;;19.30;96.10;;;;;;10317921;28;20073;-68
2023/07/24 07:59:07;;;;;;;7.78;3.83;;;19.30;96.00;;;;;;10313618;28;20503;-69
2023/07/24 08:04:08;;;;;;;6.53;3.60;;;19.70;96.10;;;;;;10314910;28;20035;-68
2023/07/24 08:09:09;;;;;;;6.60;4.38;;;19.40;96.00;;;;;;10321563;28;20026;-68
2023/07/24 08:14:09;;;;;;;5.35;3.47;;;19.40;95.90;;;;;;10322404;28;20171;-69
2023/07/24 08:19:10;;;;;;;6.28;4.05;;;19.50;95.90;;;;;;10314614;28;20034;-69
2023/07/24 08:24:10;;;;;;;7.75;3.50;;;19.50;95.90;;;;;;10318928;28;20018;-69
2023/07/24 08:29:13;;;;;;;4.68;3.50;;;19.50;95.90;;;;;;10317867;28;20395;-69
2023/07/24 08:34:14;;;;;;;6.28;3.83;;;19.50;95.90;;;;;;10322005;28;20035;-69
2023/07/24 08:39:15;;;;;;;9.73;4.13;;;19.50;95.90;;;;;;10325619;28;20026;-69
2023/07/24 08:44:16;;;;;;;6.30;3.92;;;19.60;95.90;;;;;;10327254;28;20026;-69
2023/07/24 08:49:17;;;;;;;4.97;3.28;;;19.60;95.90;;;;;;10358161;28;20031;-68
2023/07/24 08:54:19;;;;;;;6.00;3.50;;;19.60;95.80;;;;;;10320285;28;20066;-69
2023/07/24 08:59:19;;;;;;;5.60;3.38;;;19.60;95.80;;;;;;10321805;28;20176;-69
2023/07/24 09:04:20;;;;;;;5.32;3.38;;;19.60;95.80;;;;;;10354322;28;20031;-68
2023/07/24 09:09:20;;;;;;;7.82;3.80;;;19.70;95.80;;;;;;10327566;28;20027;-68
2023/07/24 09:14:31;;;;;;;6.88;3.88;;;19.70;95.80;;;;;;10328747;28;20018;-68
2023/07/24 09:19:32;;;;;;;11.95;4.03;;;19.70;95.70;;;;;;10326968;28;20040;-69
2023/07/24 09:24:33;;;;;;;6.35;3.53;;;19.70;95.70;;;;;;10329417;28;20015;-68
2023/07/24 09:29:35;;;;;;;6.60;3.53;;;19.80;95.70;;;;;;10328043;28;20521;-68
2023/07/24 09:34:42;;;;;;;6.15;3.78;;;19.80;95.70;;;;;;10326150;28;20041;-68
2023/07/24 09:39:46;;;;;;;6.97;3.65;;;19.80;95.70;;;;;;10321818;28;20041;-69
2023/07/24 09:44:47;;;;;;;5.80;3.67;;;19.80;95.70;;;;;;10327239;28;20554;-68
2023/07/24 09:49:47;;;;;;;7.38;4.00;;;19.80;95.70;;;;;;10324248;28;20026;-68
2023/07/24 09:54:51;;;;;;;5.90;3.53;;;20.40;95.80;;;;;;10316778;28;20077;-68
2023/07/24 09:59:53;;;;;;;4.60;3.38;;;19.90;95.60;;;;;;10320407;28;21293;-69
2023/07/24 10:04:55;;;;;;;5.88;3.75;;;20.00;95.60;;;;;;10323618;28;20022;-68
2023/07/24 10:09:56;;;;;;;6.22;4.03;;;20.00;95.60;;;;;;10324040;28;20064;-68
2023/07/24 10:14:57;;;;;;;5.38;3.10;;;20.10;95.50;;;;;;10323394;28;20517;-69
2023/07/24 10:20:05;;;;;;;6.28;3.75;;;20.10;95.40;;;;;;10321482;28;20399;-69
2023/07/24 10:25:07;;;;;;;10.90;3.53;;;20.20;95.40;;;;;;10319268;28;20058;-69
2023/07/24 10:30:08;;;;;;;9.07;3.97;;;20.30;95.30;;;;;;10324064;28;20209;-68
2023/07/24 10:35:09;;;;;;;6.07;3.58;;;20.30;95.30;;;;;;10312599;28;20390;-69
2023/07/24 10:40:20;;;;;;;7.32;3.63;;;20.40;95.20;;;;;;10322256;28;20041;-69
2023/07/24 10:45:21;;;;;;;8.07;3.88;;;20.40;95.20;;;;;;10314895;28;20355;-69
2023/07/24 10:50:21;;;;;;;5.43;3.88;;;20.30;95.30;;;;;;10312762;28;20391;-69
2023/07/24 10:55:24;;;;;;;6.97;3.75;;;20.30;95.30;;;;;;10316628;28;20053;-68
2023/07/24 11:00:26;;;;;;;6.32;3.63;;;20.30;95.40;;;;;;10315489;28;20113;-69
2023/07/24 11:05:27;;;;;;;6.22;4.10;;;20.30;95.40;;;;;;10317654;28;20041;-68
2023/07/24 11:10:30;;;;;;;5.20;3.42;;;20.30;95.40;;;;;;10312679;28;20027;-69
2023/07/24 11:15:31;;;;;;;5.90;3.70;;;20.30;95.30;;;;;;10312903;28;20037;-69
2023/07/24 11:20:31;;;;;;;6.90;3.75;;;20.40;95.30;;;;;;10315498;28;20360;-69
2023/07/24 11:25:32;;;;;;;7.97;3.72;;;20.40;95.20;;;;;;10316194;28;20026;-68
2023/07/24 11:30:33;;;;;;;7.18;3.97;;;20.50;95.20;;;;;;10322024;28;20129;-68
2023/07/24 11:35:35;;;;;;;5.50;3.47;;;20.60;95.00;;;;;;10319491;28;20026;-69
2023/07/24 11:40:41;;;;;;;4.90;3.80;;;20.70;95.00;;;;;;10320278;28;20018;-69
2023/07/24 11:45:43;;;;;;;5.50;3.50;;;20.70;95.00;;;;;;10313475;28;20026;-68
2023/07/24 11:50:49;;;;;;;7.03;3.42;;;20.80;94.90;;;;;;10316588;28;20117;-69
2023/07/24 11:55:51;;;;;;;6.00;3.60;;;20.80;94.80;;;;;;10316074;28;20169;-68
2023/07/24 12:00:52;;;;;;;6.50;3.97;;;20.90;94.80;;;;;;10316451;28;20034;-69
2023/07/24 12:05:53;;;;;;;5.32;3.92;;;20.90;94.80;;;;;;10323370;28;20030;-68
2023/07/24 12:10:54;;;;;;;7.18;3.70;;;21.00;94.70;;;;;;10321279;28;20462;-68
2023/07/24 12:15:54;;;;;;;8.13;3.78;;;21.00;94.70;;;;;;10329645;28;20400;-69
2023/07/24 12:20:55;;;;;;;9.07;4.28;;;21.00;94.70;;;;;;10323032;28;20027;-68
2023/07/24 12:25:55;;;;;;;6.28;4.72;;;21.00;94.70;;;;;;10360160;28;20033;-69
2023/07/24 12:30:56;;;;;;;7.93;4.40;;;21.20;94.60;;;;;;10332521;28;20030;-68
2023/07/24 12:35:57;;;;;;;6.15;4.18;;;21.10;94.50;;;;;;10326111;28;20021;-69
2023/07/24 12:40:57;;;;;;;6.60;4.32;;;21.20;94.60;;;;;;10327116;28;20037;-69
2023/07/24 12:45:58;;;;;;;9.50;5.28;;;21.10;94.60;;;;;;10328055;28;20034;-71
2023/07/24 12:51:00;;;;;;;7.20;5.25;;;21.20;94.30;;;;;;10327782;28;20072;-70
2023/07/24 12:56:00;;;;;;;6.55;4.43;;;21.20;94.10;;;;;;10322576;28;20506;-71
2023/07/24 13:01:01;;;;;;;9.38;4.70;;;21.10;94.60;;;;;;10322744;28;20113;-70
2023/07/24 13:06:02;;;;;;;10.23;4.50;;;20.90;95.10;;;;;;10325492;28;20031;-68
2023/07/24 13:11:02;;;;;;;7.88;4.38;;;20.80;95.40;;;;;;10321919;28;20497;-69
2023/07/24 13:16:03;;;;;;;10.40;5.07;;;20.80;95.60;;;;;;10320315;28;20161;-69
2023/07/24 13:21:06;;;;;;;6.88;4.15;;;20.80;95.70;;;;;;10319573;28;20501;-68
2023/07/24 13:26:10;;;;;;;6.68;4.00;;;20.70;95.80;;;;;;10329395;28;20038;-69
2023/07/24 13:31:19;;;;;;;6.72;3.85;;;20.70;95.80;;;;;;10320296;28;20026;-68
2023/07/24 13:36:19;;;;;;;10.15;4.32;;;20.70;95.80;;;;;;10325602;28;20101;-69
2023/07/24 13:41:20;;;;;;;6.38;4.30;;;20.70;95.90;;;;;;10324261;28;20406;-69
2023/07/24 13:46:21;;;;;;;6.50;4.00;;;20.70;95.90;;;;;;10326796;28;20066;-69
2023/07/24 13:51:21;;;;;;;5.32;3.95;;;20.70;95.90;;;;;;10323056;28;20433;-68
2023/07/24 13:56:23;;;;;;;6.53;3.70;;;20.80;96.00;;;;;;10319453;28;20095;-69
2023/07/24 14:01:24;;;;;;;6.53;3.55;;;20.70;96.00;;;;;;10328788;28;20065;-74
2023/07/24 14:06:24;;;;;;;6.93;3.63;;;20.70;96.10;;;;;;10327989;28;20061;-67
2023/07/24 14:11:26;;;;;;;8.05;3.30;;;20.70;96.30;;;;;;10318613;28;20026;-69
2023/07/24 14:16:27;;;;;;;5.90;3.53;;;20.70;96.30;;;;;;10318705;28;20518;-72
2023/07/24 14:21:27;;;;;;;4.97;3.25;;;20.70;96.30;;;;;;10317132;28;20033;-67
2023/07/24 14:26:28;;;;;;;13.95;3.60;;;20.70;96.20;;;;;;10311946;28;20026;-67
2023/07/24 14:31:29;;;;;;;4.63;3.22;;;20.70;96.10;;;;;;10320654;28;20077;-67
2023/07/24 14:36:33;;;;;;;3.95;2.80;;;20.80;96.10;;;;;;10320820;28;20092;-67
2023/07/24 14:41:35;;;;;;;4.43;2.80;;;20.90;96.00;;;;;;10310040;28;20182;-67
2023/07/24 14:46:35;;;;;;;5.28;2.78;;;21.00;95.90;;;;;;10318979;28;20024;-67
2023/07/24 14:51:36;;;;;;;2.58;1.85;;;21.10;95.70;;;;;;10322814;28;20022;-70
2023/07/24 14:56:36;;;;;;;2.53;1.60;;;21.00;95.60;;;;;;10318754;28;20101;-70
2023/07/24 15:01:37;;;;;;;3.40;1.63;;;20.80;95.70;;;;;;10350263;28;20058;-69
2023/07/24 15:06:38;;;;;;;2.13;1.42;;;20.90;95.50;;;;;;10316988;28;20026;-69
2023/07/24 15:11:38;;;;;;;2.45;1.33;;;21.10;95.40;;;;;;10319966;28;20364;-69
2023/07/24 15:16:40;;;;;;;3.38;1.30;;;21.20;95.10;;;;;;10320525;28;20037;-76
2023/07/24 15:21:40;;;;;;;4.03;1.20;;;21.00;94.90;;;;;;10317787;28;20014;-69
2023/07/24 15:26:41;;;;;;;2.05;1.27;;;20.80;95.00;;;;;;10315259;28;20438;-69
2023/07/24 15:31:42;;;;;;;2.00;1.05;;;20.50;95.10;;;;;;10316142;28;20030;-70
2023/07/24 15:36:42;;;;;;;4.05;1.42;;;20.40;95.10;;;;;;10319414;28;20029;-70
2023/07/24 15:41:43;;;;;;;4.57;1.30;;;20.30;95.10;;;;;;10321498;28;20514;-70
2023/07/24 15:46:44;;;;;;;2.10;0.80;;;20.20;94.90;;;;;;10319868;28;20455;-69
2023/07/24 15:51:45;;;;;;;2.85;1.05;;;19.90;94.70;;;;;;10328397;28;20085;-68
2023/07/24 15:56:45;;;;;;;1.33;0.90;;;19.60;94.40;;;;;;10326485;28;20117;-70
2023/07/24 16:01:46;;;;;;;2.58;0.90;;;19.70;94.00;;;;;;10321840;28;20030;-70
2023/07/24 16:06:47;;;;;;;2.17;0.93;;;19.50;94.00;;;;;;10325758;28;20022;-69
2023/07/24 16:11:48;;;;;;;1.52;0.70;;;19.40;94.10;;;;;;10328511;28;20395;-70
2023/07/24 16:16:49;;;;;;;2.30;0.93;;;19.30;94.00;;;;;;10326509;28;20093;-70
2023/07/24 16:21:51;;;;;;;5.03;1.08;;;19.40;94.10;;;;;;10329345;28;20117;-70
2023/07/24 16:26:51;;;;;;;2.83;0.90;;;19.30;93.90;;;;;;10324718;28;20109;-69
2023/07/24 16:31:52;;;;;;;6.32;0.90;;;19.00;94.10;;;;;;10321987;28;20038;-70
2023/07/24 16:36:53;;;;;;;3.22;1.20;;;18.90;94.30;;;;;;10324083;28;20035;-70
2023/07/24 16:41:53;;;;;;;1.90;0.85;;;18.70;94.50;;;;;;10322247;28;20023;-70
2023/07/24 16:46:54;;;;;;;2.80;0.80;;;18.60;94.70;;;;;;10323531;28;20037;-70
2023/07/24 16:51:55;;;;;;;1.73;0.63;;;18.40;94.80;;;;;;10319758;28;20099;-71
2023/07/24 16:56:56;;;;;;;1.90;0.98;;;18.20;94.90;;;;;;10317952;28;20750;-69
2023/07/24 17:01:57;;;;;;;1.10;0.80;;;18.00;95.20;;;;;;10323605;28;20019;-70
2023/07/24 17:06:57;;;;;;;3.30;0.85;;;18.00;95.40;;;;;;10321214;28;20037;-71
2023/07/24 17:11:58;;;;;;;1.73;1.10;;;17.80;95.60;;;;;;10317370;28;20027;-68
2023/07/24 17:17:00;;;;;;;6.55;1.20;;;17.90;95.80;;;;;;10316894;28;20554;-68
2023/07/24 17:22:00;;;;;;;2.70;0.95;;;18.20;95.50;;;;;;10318610;28;20030;-68
2023/07/24 17:27:01;;;;;;;3.92;0.98;;;18.50;95.30;;;;;;10317752;28;20419;-68
2023/07/24 17:32:01;;;;;;;2.33;0.90;;;18.70;95.00;;;;;;10322741;28;20026;-71
2023/07/24 17:37:02;;;;;;;2.30;1.13;;;18.90;94.90;;;;;;10310277;28;20129;-69
2023/07/24 17:42:03;;;;;;;3.53;1.20;;;19.10;94.80;;;;;;10318005;28;20034;-67
2023/07/24 17:47:04;;;;;;;4.70;1.05;;;19.20;94.70;;;;;;10313070;28;20096;-69
2023/07/24 17:52:05;;;;;;;1.83;1.30;;;19.30;94.60;;;;;;10317333;28;20022;-68
2023/07/24 17:57:06;;;;;;;1.65;1.10;;;19.40;94.60;;;;;;10307448;28;20034;-69
2023/07/24 18:02:07;;;;;;;3.40;1.30;;;19.50;94.50;;;;;;10313763;28;20033;-67
2023/07/24 18:07:08;;;;;;;3.45;1.20;;;19.60;94.40;;;;;;10312693;28;20568;-68
2023/07/24 18:12:08;;;;;;;3.30;1.00;;;19.60;94.40;;;;;;10320396;28;20061;-67
2023/07/24 18:17:09;;;;;;;2.35;1.10;;;19.70;94.40;;;;;;10317232;28;20034;-68
2023/07/24 18:22:11;;;;;;;2.33;1.00;;;19.70;94.40;;;;;;10318420;28;20356;-67
2023/07/24 18:27:12;;;;;;;1.58;1.00;;;19.60;94.40;;;;;;10318384;28;20090;-68
2023/07/24 18:32:12;;;;;;;2.50;1.05;;;19.70;94.40;;;;;;10309866;28;20572;-68
2023/07/24 18:37:13;;;;;;;2.97;1.40;;;19.70;94.40;;;;;;10317204;28;20030;-68
2023/07/24 18:42:14;;;;;;;2.28;1.42;;;19.80;94.40;;;;;;10318456;28;20372;-68
2023/07/24 18:47:14;;;;;;;3.45;1.10;;;19.80;94.40;;;;;;10318845;28;20040;-68
2023/07/24 18:52:15;;;;;;;1.52;1.08;;;19.70;94.40;;;;;;10315666;28;20029;-68
2023/07/24 18:57:15;;;;;;;6.07;1.42;;;19.70;94.40;;;;;;10317749;28;20038;-67
2023/07/24 19:02:17;;;;;;;4.13;1.30;;;19.70;94.40;;;;;;10309302;28;20026;-69
2023/07/24 19:07:17;;;;;;;5.55;1.20;;;19.50;94.40;;;;;;10316146;28;20113;-69
2023/07/24 19:12:18;;;;;;;2.88;1.33;;;19.60;94.40;;;;;;10320875;28;20014;-69
2023/07/24 19:17:19;;;;;;;3.35;1.60;;;19.60;94.40;;;;;;10314156;28;20035;-69
2023/07/24 19:22:19;;;;;;;2.75;1.50;;;19.60;94.40;;;;;;10305713;28;20088;-69
2023/07/24 19:27:20;;;;;;;3.72;1.20;;;19.60;94.40;;;;;;10316804;28;20557;-69
2023/07/24 19:32:21;;;;;;;2.65;1.58;;;19.60;94.40;;;;;;10313271;28;20023;-69
2023/07/24 19:37:23;;;;;;;2.13;1.05;;;19.60;94.40;;;;;;10315942;28;20486;-68
2023/07/24 19:42:23;;;;;;;3.40;1.20;;;19.60;94.40;;;;;;10316734;28;20277;-69
2023/07/24 19:47:24;;;;;;;2.47;1.30;;;19.60;94.30;;;;;;10316337;28;20445;-68
2023/07/24 19:52:25;;;;;;;2.90;1.17;;;19.60;94.30;;;;;;10317695;28;20360;-68
2023/07/24 19:57:25;;;;;;;1.65;1.30;;;19.60;94.30;;;;;;10310637;28;20026;-68
2023/07/24 20:02:26;;;;;;;4.65;1.30;;;19.60;94.30;;;;;;10307960;28;20026;-69
2023/07/24 20:07:27;;;;;;;3.25;1.23;;;19.60;94.30;;;;;;10300576;28;20069;-68
2023/07/24 20:12:27;;;;;;;3.60;1.30;;;19.60;94.30;;;;;;10307441;28;20041;-67
2023/07/24 20:17:28;;;;;;;2.40;1.17;;;19.50;94.30;;;;;;10310893;28;20057;-67
2023/07/24 20:22:28;;;;;;;4.38;1.40;;;19.50;94.30;;;;;;10313198;28;20034;-68
2023/07/24 20:27:29;;;;;;;3.00;1.20;;;19.50;94.30;;;;;;10324292;28;20421;-67
2023/07/24 20:32:31;;;;;;;4.07;1.67;;;19.50;94.30;;;;;;10311414;28;20102;-67
2023/07/24 20:37:31;;;;;;;5.47;1.63;;;19.50;94.30;;;;;;10318686;28;20101;-68
2023/07/24 20:42:32;;;;;;;4.10;1.52;;;19.50;94.30;;;;;;10319826;28;20018;-68
2023/07/24 20:47:33;;;;;;;6.05;1.50;;;19.40;94.30;;;;;;10325037;28;20042;-68
2023/07/24 20:52:34;;;;;;;4.82;1.85;;;19.40;94.20;;;;;;10316943;28;20118;-68
2023/07/24 20:57:34;;;;;;;2.85;1.70;;;19.40;94.30;;;;;;10314912;28;20039;-67
2023/07/24 21:02:35;;;;;;;4.85;1.70;;;19.40;94.30;;;;;;10318820;28;20168;-68
2023/07/24 21:07:36;;;;;;;3.47;1.77;;;19.40;94.30;;;;;;10317337;28;20026;-68
2023/07/24 21:12:36;;;;;;;4.28;2.05;;;19.30;94.20;;;;;;10325404;28;20113;-68
2023/07/24 21:17:37;;;;;;;3.08;1.70;;;19.30;94.20;;;;;;10317884;28;20050;-68
2023/07/24 21:22:37;;;;;;;2.95;1.60;;;19.30;94.20;;;;;;10317228;28;20029;-68
2023/07/24 21:27:38;;;;;;;2.42;1.50;;;19.30;94.20;;;;;;10319026;28;20030;-67
2023/07/24 21:32:39;;;;;;;2.17;1.60;;;19.20;94.10;;;;;;10333959;28;20027;-67
2023/07/24 21:37:41;;;;;;;4.88;1.65;;;19.20;94.10;;;;;;10319030;28;20054;-68
2023/07/24 21:42:42;;;;;;;3.95;1.90;;;19.20;94.10;;;;;;10322726;28;20627;-67
2023/07/24 21:47:42;;;;;;;2.65;1.60;;;19.20;94.10;;;;;;10322515;28;20029;-68
2023/07/24 21:52:43;;;;;;;3.03;1.70;;;19.20;94.00;;;;;;10330479;28;20030;-67
2023/07/24 21:57:44;;;;;;;3.45;1.80;;;19.10;94.00;;;;;;10323526;28;20038;-68
2023/07/24 22:02:44;;;;;;;3.88;1.73;;;19.10;94.00;;;;;;10333102;28;20031;-68
2023/07/24 22:07:45;;;;;;;3.13;1.73;;;19.10;94.00;;;;;;10328257;28;20026;-68
2023/07/24 22:12:46;;;;;;;3.35;2.10;;;19.10;93.90;;;;;;10322604;28;20023;-67
2023/07/24 22:17:46;;;;;;;4.20;1.90;;;19.10;93.90;;;;;;10328367;28;20038;-67
2023/07/24 22:22:47;;;;;;;3.42;2.25;;;19.00;93.90;;;;;;10321090;28;20052;-68
2023/07/24 22:27:48;;;;;;;4.10;1.70;;;19.00;93.80;;;;;;10324835;28;20498;-67
2023/07/24 22:32:48;;;;;;;4.53;2.08;;;19.00;93.80;;;;;;10323021;28;20081;-68
2023/07/24 22:37:49;;;;;;;3.35;1.85;;;18.90;93.80;;;;;;10359330;28;20026;-67
2023/07/24 22:42:50;;;;;;;3.22;1.80;;;18.90;93.70;;;;;;10328076;28;20406;-67
2023/07/24 22:47:50;;;;;;;3.38;1.77;;;18.90;93.70;;;;;;10319349;28;20121;-67
2023/07/24 22:52:51;;;;;;;3.75;1.63;;;18.90;93.70;;;;;;10329178;28;20489;-67
2023/07/24 22:57:51;;;;;;;5.63;1.90;;;18.80;93.60;;;;;;10315727;28;20022;-67
2023/07/24 23:02:52;;;;;;;4.50;1.80;;;18.80;93.60;;;;;;10328365;28;20486;-67
2023/07/24 23:07:54;;;;;;;2.42;1.65;;;18.80;93.60;;;;;;10325905;28;20212;-67
2023/07/24 23:12:55;;;;;;;2.83;1.70;;;18.80;93.60;;;;;;10321626;28;20025;-68
2023/07/24 23:17:55;;;;;;;3.65;1.80;;;18.70;93.50;;;;;;10319771;28;20032;-67
2023/07/24 23:22:57;;;;;;;4.85;2.10;;;18.70;93.50;;;;;;10324513;28;20034;-68
2023/07/24 23:27:57;;;;;;;2.78;1.75;;;18.70;93.50;;;;;;10323098;28;20037;-67
2023/07/24 23:32:58;;;;;;;3.17;1.40;;;18.70;93.50;;;;;;10319991;28;20021;-67
2023/07/24 23:37:58;;;;;;;3.22;1.80;;;18.60;93.40;;;;;;10330813;28;20046;-67
2023/07/24 23:42:59;;;;;;;4.03;1.88;;;18.60;93.40;;;;;;10321597;28;20019;-68
2023/07/24 23:48:00;;;;;;;4.75;1.80;;;18.60;93.40;;;;;;10318078;28;20034;-67
2023/07/24 23:53:01;;;;;;;1.95;1.58;;;18.60;93.40;;;;;;10325724;28;20026;-67
2023/07/24 23:58:01;;;;;;;4.00;1.73;;;18.60;93.30;;;;;;10315941;28;20486;-67
